Time;durP1;ratioP1;P1;durP2;ratioP2;P2;SDS_P1;SDS_P2;PMS_P1;PMS_P2;Temp;Humidity;BMP_temperature;BMP_pressure;BME280_temperature;BME280_humidity;BME280_pressure;Samples;Min_cycle;Max_cycle;Signal;HPM_P1;HPM_P2
2022/05/23 00:01:21;;;;;;;;;12.75;10.00;;;;;;;;5036047;28;45336;-69
2022/05/23 00:03:47;;;;;;;;;14.00;11.75;;;;;;;;5050158;28;45512;-70
2022/05/23 00:06:14;;;;;;;;;7.00;5.75;;;;;;;;5040275;28;46045;-69
2022/05/23 00:08:40;;;;;;;;;10.75;10.75;;;;;;;;5043802;28;45530;-68
2022/05/23 00:11:05;;;;;;;;;12.25;10.50;;;;;;;;5058539;28;45407;-69
2022/05/23 00:13:30;;;;;;;;;12.00;10.00;;;;;;;;5059267;28;45571;-68
2022/05/23 00:15:57;;;;;;;;;10.50;9.00;;;;;;;;5061267;28;46112;-68
2022/05/23 00:18:22;;;;;;;;;8.50;7.75;;;;;;;;5058951;28;45517;-68
2022/05/23 00:20:47;;;;;;;;;7.25;7.25;;;;;;;;5059988;28;45406;-68
2022/05/23 00:23:12;;;;;;;;;6.75;6.75;;;;;;;;5062713;28;45247;-68
2022/05/23 00:25:38;;;;;;;;;7.50;6.25;;;;;;;;5059783;28;46403;-68
2022/05/23 00:28:03;;;;;;;;;6.50;5.50;;;;;;;;5060636;28;45466;-68
2022/05/23 00:30:28;;;;;;;;;6.75;5.00;;;;;;;;5064151;28;45626;-68
2022/05/23 00:35:40;;;;;;;;;6.25;4.75;;;;;;;;5063308;28;45467;-68
2022/05/23 00:38:05;;;;;;;;;4.75;4.00;;;;;;;;5064037;28;45497;-67
2022/05/23 00:40:30;;;;;;;;;4.00;4.00;;;;;;;;5064086;28;45461;-68
2022/05/23 00:43:15;;;;;;;;;4.50;4.50;;;;;;;;5065363;28;45515;-67
2022/05/23 00:45:45;;;;;;;;;7.50;5.75;;;;;;;;5062266;28;47178;-67
2022/05/23 00:48:11;;;;;;;;;5.00;4.00;;;;;;;;5062943;28;45533;-68
2022/05/23 00:50:39;;;;;;;;;5.50;5.25;;;;;;;;5062024;28;45343;-68
2022/05/23 00:53:06;;;;;;;;;4.75;4.75;;;;;;;;5064558;28;45456;-68
2022/05/23 00:55:35;;;;;;;;;5.50;5.50;;;;;;;;5062859;28;46448;-67
2022/05/23 00:58:06;;;;;;;;;4.00;4.00;;;;;;;;5061155;28;45407;-67
2022/05/23 01:00:31;;;;;;;;;7.00;7.00;;;;;;;;5063546;28;45376;-68
2022/05/23 01:03:00;;;;;;;;;3.25;3.25;;;;;;;;5062539;28;45469;-68
2022/05/23 01:05:26;;;;;;;;;4.50;4.50;;;;;;;;5061694;28;45659;-69
2022/05/23 01:07:52;;;;;;;;;6.50;6.00;;;;;;;;5060807;28;46611;-68
2022/05/23 01:10:17;;;;;;;;;4.50;4.50;;;;;;;;5050784;28;45498;-68
2022/05/23 01:12:43;;;;;;;;;3.50;3.50;;;;;;;;5052128;28;45322;-68
2022/05/23 01:15:22;;;;;;;;;6.75;6.75;;;;;;;;5043705;28;46307;-69
2022/05/23 01:17:48;;;;;;;;;5.75;4.00;;;;;;;;5040696;28;45443;-69
2022/05/23 01:20:14;;;;;;;;;6.50;5.50;;;;;;;;5041547;28;45423;-68
2022/05/23 01:22:57;;;;;;;;;6.00;6.00;;;;;;;;5042220;28;45491;-69
2022/05/23 01:25:28;;;;;;;;;5.75;5.00;;;;;;;;5041303;28;47253;-69
2022/05/23 01:27:53;;;;;;;;;3.00;3.00;;;;;;;;5049703;28;45426;-69
2022/05/23 01:30:20;;;;;;;;;4.50;4.50;;;;;;;;5039875;28;45410;-69
2022/05/23 01:32:45;;;;;;;;;4.00;4.00;;;;;;;;5038485;28;45307;-68
2022/05/23 01:35:11;;;;;;;;;4.25;4.00;;;;;;;;5052556;28;45443;-68
2022/05/23 01:37:36;;;;;;;;;9.25;5.00;;;;;;;;5049990;28;46216;-68
2022/05/23 01:40:02;;;;;;;;;5.25;4.50;;;;;;;;5046113;28;45498;-69
2022/05/23 01:42:27;;;;;;;;;4.00;4.00;;;;;;;;5045920;28;45353;-68
2022/05/23 01:44:52;;;;;;;;;7.50;5.00;;;;;;;;5037809;28;46186;-68
2022/05/23 01:47:19;;;;;;;;;5.75;3.75;;;;;;;;5043328;28;45491;-69
2022/05/23 01:49:44;;;;;;;;;4.00;4.00;;;;;;;;5056919;28;45525;-69
2022/05/23 01:52:10;;;;;;;;;5.00;5.00;;;;;;;;5059271;28;45439;-68
2022/05/23 01:54:35;;;;;;;;;6.50;6.50;;;;;;;;5057324;28;46816;-69
2022/05/23 01:57:01;;;;;;;;;6.00;4.75;;;;;;;;5055550;28;45460;-68
2022/05/23 02:02:10;;;;;;;;;8.00;5.75;;;;;;;;5074101;28;45462;-69
2022/05/23 02:04:36;;;;;;;;;5.00;5.00;;;;;;;;5066479;28;45609;-68
2022/05/23 02:07:01;;;;;;;;;8.00;7.00;;;;;;;;5065800;28;45345;-68
2022/05/23 02:09:27;;;;;;;;;4.75;4.00;;;;;;;;5058787;28;45504;-69
2022/05/23 02:11:52;;;;;;;;;7.50;7.50;;;;;;;;5054872;28;45327;-68
2022/05/23 02:14:17;;;;;;;;;6.25;5.50;;;;;;;;5071002;27;45324;-69
2022/05/23 02:16:43;;;;;;;;;5.00;5.00;;;;;;;;5059954;28;45610;-69
2022/05/23 02:19:08;;;;;;;;;7.25;5.00;;;;;;;;5058893;28;45230;-68
2022/05/23 02:21:33;;;;;;;;;4.75;4.75;;;;;;;;5058907;28;45242;-69
2022/05/23 02:23:59;;;;;;;;;7.25;7.25;;;;;;;;5054271;28;46092;-68
2022/05/23 02:26:24;;;;;;;;;7.00;4.00;;;;;;;;5060444;28;45317;-68
2022/05/23 02:28:49;;;;;;;;;4.75;4.75;;;;;;;;5057364;27;45499;-68
2022/05/23 02:31:14;;;;;;;;;4.25;2.50;;;;;;;;5053434;28;46066;-69
2022/05/23 02:33:41;;;;;;;;;5.25;5.25;;;;;;;;5054621;28;46033;-68
2022/05/23 02:36:07;;;;;;;;;4.25;4.25;;;;;;;;5055748;28;45397;-68
2022/05/23 02:38:32;;;;;;;;;5.75;5.75;;;;;;;;5057632;28;45308;-69
2022/05/23 02:40:57;;;;;;;;;4.25;3.75;;;;;;;;5058288;28;45499;-69
2022/05/23 02:43:22;;;;;;;;;9.00;8.00;;;;;;;;5058308;28;46010;-69
2022/05/23 02:45:49;;;;;;;;;9.50;8.75;;;;;;;;5057670;28;45582;-68
2022/05/23 02:48:14;;;;;;;;;4.50;4.50;;;;;;;;5056731;28;45335;-68
2022/05/23 02:50:39;;;;;;;;;7.50;6.00;;;;;;;;5055614;28;45397;-69
2022/05/23 02:53:05;;;;;;;;;5.00;5.00;;;;;;;;5059748;28;46441;-69
2022/05/23 02:55:30;;;;;;;;;6.00;5.50;;;;;;;;5056124;28;45493;-68
2022/05/23 02:57:55;;;;;;;;;5.00;5.00;;;;;;;;5058511;28;45335;-68
2022/05/23 03:00:21;;;;;;;;;5.50;5.50;;;;;;;;5057365;28;45559;-68
2022/05/23 03:03:01;;;;;;;;;9.00;6.00;;;;;;;;5054603;28;46566;-68
2022/05/23 03:05:27;;;;;;;;;9.00;5.25;;;;;;;;5067967;28;45533;-69
2022/05/23 03:07:52;;;;;;;;;4.00;3.75;;;;;;;;5058409;28;45501;-69
2022/05/23 03:10:17;;;;;;;;;4.75;4.75;;;;;;;;5039899;28;45407;-69
2022/05/23 03:12:42;;;;;;;;;4.50;4.50;;;;;;;;5057924;28;46120;-68
2022/05/23 03:15:08;;;;;;;;;4.00;4.00;;;;;;;;5055413;28;45510;-69
2022/05/23 03:17:34;;;;;;;;;6.25;6.25;;;;;;;;5057455;28;45437;-69
2022/05/23 03:19:59;;;;;;;;;7.75;5.00;;;;;;;;5058782;28;45422;-68
2022/05/23 03:27:52;;;;;;;;;5.75;5.00;;;;;;;;5057783;28;45409;-68
2022/05/23 03:30:17;;;;;;;;;4.50;4.50;;;;;;;;5056162;28;45385;-69
2022/05/23 03:32:42;;;;;;;;;7.25;6.50;;;;;;;;5054941;28;45558;-68
2022/05/23 03:35:08;;;;;;;;;5.00;5.00;;;;;;;;5059542;27;45469;-68
2022/05/23 03:37:33;;;;;;;;;5.50;5.50;;;;;;;;5049753;28;45452;-69
2022/05/23 03:40:00;;;;;;;;;7.25;6.00;;;;;;;;5048303;28;45419;-68
2022/05/23 03:42:25;;;;;;;;;8.50;6.00;;;;;;;;5038815;28;47219;-69
2022/05/23 03:44:51;;;;;;;;;4.25;4.25;;;;;;;;5053414;28;45424;-69
2022/05/23 03:47:16;;;;;;;;;4.50;4.50;;;;;;;;5059562;28;45277;-69
2022/05/23 03:49:41;;;;;;;;;5.25;5.00;;;;;;;;5056856;28;45375;-68
2022/05/23 03:52:06;;;;;;;;;5.00;5.00;;;;;;;;5061094;28;46964;-69
2022/05/23 03:54:32;;;;;;;;;8.75;6.50;;;;;;;;5068496;27;45458;-68
2022/05/23 03:57:01;;;;;;;;;8.00;7.00;;;;;;;;5052478;28;45311;-69
2022/05/23 03:59:27;;;;;;;;;6.25;6.25;;;;;;;;5071679;27;45398;-69
2022/05/23 04:01:54;;;;;;;;;10.00;7.00;;;;;;;;5055888;28;46313;-69
2022/05/23 04:04:20;;;;;;;;;5.75;5.75;;;;;;;;5060481;28;45557;-69
2022/05/23 04:06:45;;;;;;;;;12.50;11.50;;;;;;;;5060999;28;45421;-69
2022/05/23 04:09:10;;;;;;;;;10.50;8.75;;;;;;;;5057553;28;45604;-69
2022/05/23 04:11:35;;;;;;;;;7.50;7.50;;;;;;;;5049679;28;46264;-68
2022/05/23 04:14:00;;;;;;;;;11.25;10.75;;;;;;;;5060003;28;45515;-69
2022/05/23 04:16:29;;;;;;;;;7.25;7.00;;;;;;;;5060761;28;45414;-69
2022/05/23 04:18:54;;;;;;;;;8.00;7.00;;;;;;;;5059913;28;45487;-69
2022/05/23 04:21:19;;;;;;;;;8.00;7.50;;;;;;;;5059242;27;46796;-69
2022/05/23 04:23:46;;;;;;;;;8.00;8.00;;;;;;;;5042905;28;45597;-69
2022/05/23 04:26:11;;;;;;;;;10.50;8.25;;;;;;;;5061192;28;45439;-69
2022/05/23 04:28:39;;;;;;;;;10.75;9.00;;;;;;;;5060644;27;45320;-69
2022/05/23 04:31:04;;;;;;;;;9.25;9.25;;;;;;;;5059811;28;45366;-68
2022/05/23 04:36:14;;;;;;;;;18.00;16.00;;;;;;;;5056235;28;45444;-68
2022/05/23 04:38:39;;;;;;;;;10.50;10.25;;;;;;;;5058241;28;45369;-69
2022/05/23 04:41:07;;;;;;;;;19.00;18.00;;;;;;;;5062163;28;45894;-69
2022/05/23 04:43:33;;;;;;;;;13.25;13.25;;;;;;;;5063356;28;45335;-68
2022/05/23 04:45:58;;;;;;;;;17.50;16.00;;;;;;;;5068105;28;45443;-69
2022/05/23 04:51:07;;;;;;;;;19.25;17.25;;;;;;;;5042262;28;45338;-69
2022/05/23 04:53:32;;;;;;;;;7.25;7.25;;;;;;;;5059704;28;45331;-69
2022/05/23 04:56:00;;;;;;;;;18.00;17.25;;;;;;;;5060500;28;45314;-69
2022/05/23 04:58:25;;;;;;;;;19.50;17.00;;;;;;;;5059051;28;45482;-68
2022/05/23 05:00:50;;;;;;;;;18.75;18.75;;;;;;;;5059210;28;45457;-69
2022/05/23 05:03:16;;;;;;;;;21.00;19.75;;;;;;;;5056341;28;45428;-68
2022/05/23 05:05:41;;;;;;;;;19.00;17.75;;;;;;;;5056969;28;45568;-70
2022/05/23 05:08:06;;;;;;;;;16.75;15.75;;;;;;;;5061595;28;45507;-69
2022/05/23 05:10:32;;;;;;;;;13.50;13.50;;;;;;;;5059424;27;46396;-69
2022/05/23 05:12:58;;;;;;;;;19.50;15.00;;;;;;;;5059042;28;45809;-68
2022/05/23 05:15:24;;;;;;;;;15.50;15.25;;;;;;;;5054536;28;45608;-69
2022/05/23 05:17:49;;;;;;;;;16.25;15.00;;;;;;;;5044744;28;45468;-69
2022/05/23 05:20:15;;;;;;;;;15.00;12.75;;;;;;;;5040612;28;46051;-69
2022/05/23 05:22:41;;;;;;;;;18.25;14.25;;;;;;;;5052532;28;45446;-69
2022/05/23 05:25:07;;;;;;;;;19.25;18.75;;;;;;;;5052898;28;45388;-69
2022/05/23 05:27:33;;;;;;;;;12.00;11.25;;;;;;;;5051580;28;45882;-69
2022/05/23 05:29:59;;;;;;;;;13.25;11.50;;;;;;;;5052032;28;45445;-69
2022/05/23 05:32:29;;;;;;;;;23.00;20.25;;;;;;;;5046311;28;45425;-69
2022/05/23 05:35:00;;;;;;;;;12.00;10.25;;;;;;;;5042313;28;45449;-68
2022/05/23 05:37:29;;;;;;;;;10.00;8.00;;;;;;;;5038558;28;45563;-68
2022/05/23 05:39:55;;;;;;;;;13.25;13.25;;;;;;;;5049785;28;46628;-67
2022/05/23 05:42:20;;;;;;;;;8.25;8.25;;;;;;;;5041361;28;45462;-68
2022/05/23 05:44:49;;;;;;;;;8.25;8.00;;;;;;;;5041482;28;45378;-67
2022/05/23 05:47:15;;;;;;;;;10.25;8.75;;;;;;;;5040189;28;45452;-67
2022/05/23 05:49:43;;;;;;;;;10.75;10.25;;;;;;;;5052208;28;46302;-69
2022/05/23 05:52:12;;;;;;;;;8.75;8.75;;;;;;;;5052595;28;45312;-69
2022/05/23 05:54:39;;;;;;;;;11.00;9.25;;;;;;;;5040638;28;45455;-66
2022/05/23 05:57:04;;;;;;;;;11.75;11.75;;;;;;;;5048615;28;45475;-68
2022/05/23 05:59:29;;;;;;;;;11.25;11.25;;;;;;;;5051294;28;46600;-66
2022/05/23 06:01:55;;;;;;;;;11.25;9.75;;;;;;;;5049908;28;45309;-68
2022/05/23 06:04:20;;;;;;;;;16.25;13.25;;;;;;;;5041182;28;45575;-68
2022/05/23 06:12:13;;;;;;;;;12.50;12.50;;;;;;;;5048087;28;45433;-68
2022/05/23 06:14:38;;;;;;;;;11.75;11.50;;;;;;;;5048131;28;45519;-69
2022/05/23 06:17:07;;;;;;;;;15.00;14.00;;;;;;;;5047496;28;45467;-68
2022/05/23 06:19:39;;;;;;;;;16.00;14.75;;;;;;;;5040804;28;45961;-69
2022/05/23 06:22:05;;;;;;;;;11.00;11.00;;;;;;;;5051205;28;45361;-68
2022/05/23 06:24:30;;;;;;;;;10.00;9.75;;;;;;;;5046250;28;45638;-69
2022/05/23 06:26:57;;;;;;;;;9.25;9.25;;;;;;;;5052529;28;45424;-69
2022/05/23 06:29:23;;;;;;;;;9.00;9.00;;;;;;;;5054228;27;46030;-69
2022/05/23 06:31:48;;;;;;;;;11.00;11.00;;;;;;;;5042200;28;45374;-68
2022/05/23 06:34:13;;;;;;;;;7.00;7.00;;;;;;;;5050839;28;45477;-69
2022/05/23 06:36:38;;;;;;;;;12.00;10.25;;;;;;;;5051688;28;45502;-69
2022/05/23 06:39:04;;;;;;;;;10.50;9.50;;;;;;;;5042339;28;46225;-70
2022/05/23 06:41:29;;;;;;;;;8.00;8.00;;;;;;;;5048799;28;45594;-68
2022/05/23 06:43:54;;;;;;;;;5.75;5.00;;;;;;;;5042633;28;45477;-69
2022/05/23 06:46:19;;;;;;;;;13.25;9.75;;;;;;;;5052335;28;45542;-69
2022/05/23 06:48:45;;;;;;;;;12.50;8.25;;;;;;;;5046092;28;47080;-68
2022/05/23 06:51:11;;;;;;;;;9.75;8.25;;;;;;;;5048363;28;45488;-69
2022/05/23 06:53:36;;;;;;;;;9.25;7.00;;;;;;;;5044179;28;45512;-69
2022/05/23 06:56:01;;;;;;;;;10.25;9.25;;;;;;;;5045534;28;45599;-68
2022/05/23 06:58:27;;;;;;;;;9.50;8.25;;;;;;;;5044068;28;45506;-68
2022/05/23 07:00:52;;;;;;;;;10.50;9.50;;;;;;;;5044934;28;45405;-69
2022/05/23 07:03:18;;;;;;;;;10.50;8.75;;;;;;;;5045900;28;45464;-69
2022/05/23 07:13:56;;;;;;;;;7.50;7.00;;;;;;;;5044093;28;45515;-64
2022/05/23 07:16:22;;;;;;;;;8.50;8.50;;;;;;;;5040759;28;45476;-65
2022/05/23 07:18:47;;;;;;;;;8.00;8.00;;;;;;;;5045850;28;46413;-66
2022/05/23 07:21:13;;;;;;;;;9.75;8.75;;;;;;;;5043771;28;45472;-65
2022/05/23 07:23:38;;;;;;;;;9.75;9.75;;;;;;;;5044107;28;45396;-65
2022/05/23 07:26:05;;;;;;;;;6.25;6.25;;;;;;;;5048447;28;45343;-66
2022/05/23 07:28:30;;;;;;;;;11.50;9.75;;;;;;;;5042861;28;45478;-67
2022/05/23 07:30:55;;;;;;;;;13.00;10.75;;;;;;;;5023503;28;45487;-65
2022/05/23 07:33:20;;;;;;;;;10.00;9.50;;;;;;;;5042766;28;45391;-64
2022/05/23 07:35:46;;;;;;;;;9.25;7.75;;;;;;;;5043986;28;45410;-65
2022/05/23 07:38:11;;;;;;;;;9.25;9.25;;;;;;;;5043479;28;46344;-65
2022/05/23 07:40:36;;;;;;;;;10.25;8.75;;;;;;;;5040638;28;45445;-64
2022/05/23 07:43:02;;;;;;;;;9.50;8.25;;;;;;;;5038766;28;45481;-66
2022/05/23 07:45:27;;;;;;;;;11.50;9.50;;;;;;;;5039786;28;45466;-65
2022/05/23 07:47:52;;;;;;;;;14.25;10.50;;;;;;;;5035480;28;46433;-65
2022/05/23 07:50:19;;;;;;;;;15.00;12.25;;;;;;;;5049531;28;45316;-64
2022/05/23 08:00:30;;;;;;;;;9.75;7.75;;;;;;;;5047108;28;45527;-65
2022/05/23 08:01:04;;;;;;;;;11.00;9.25;;;;;;;;4990038;28;45535;-64
2022/05/23 08:03:30;;;;;;;;;14.75;13.00;;;;;;;;4990546;28;45616;-65
2022/05/23 08:05:55;;;;;;;;;12.50;12.50;;;;;;;;4990600;28;45527;-65
2022/05/23 08:08:20;;;;;;;;;11.50;9.25;;;;;;;;4994538;28;45436;-65
2022/05/23 08:10:47;;;;;;;;;11.00;10.75;;;;;;;;4989854;28;45522;-65
2022/05/23 08:13:12;;;;;;;;;11.25;11.25;;;;;;;;4990029;28;45338;-64
2022/05/23 08:15:39;;;;;;;;;10.25;10.25;;;;;;;;4990407;28;45336;-65
2022/05/23 08:18:04;;;;;;;;;16.75;12.50;;;;;;;;4975400;28;46387;-64
2022/05/23 08:20:30;;;;;;;;;12.25;10.50;;;;;;;;4991480;28;45406;-65
2022/05/23 08:22:55;;;;;;;;;13.50;11.50;;;;;;;;5002734;28;45318;-64
2022/05/23 08:25:20;;;;;;;;;16.75;13.25;;;;;;;;4998991;28;45481;-65
2022/05/23 08:27:46;;;;;;;;;11.00;10.00;;;;;;;;4995240;28;46498;-65
2022/05/23 08:30:11;;;;;;;;;15.25;13.25;;;;;;;;4992981;28;45378;-65
2022/05/23 08:32:36;;;;;;;;;10.50;9.50;;;;;;;;4994138;28;45403;-64
2022/05/23 08:35:02;;;;;;;;;11.25;10.25;;;;;;;;5014999;28;45298;-64
2022/05/23 08:37:27;;;;;;;;;14.50;11.25;;;;;;;;5052270;28;45976;-65
2022/05/23 08:39:52;;;;;;;;;11.25;11.00;;;;;;;;5020816;28;45415;-64
2022/05/23 08:42:17;;;;;;;;;17.25;14.00;;;;;;;;5052793;28;47100;-65
2022/05/23 08:44:45;;;;;;;;;17.20;16.00;;;;;;;;5053642;28;45337;-65
2022/05/23 08:47:24;;;;;;;;;15.25;12.25;;;;;;;;5057880;27;47253;-65
2022/05/23 08:50:03;;;;;;;;;16.75;13.00;;;;;;;;5058910;28;45525;-65
2022/05/23 08:52:37;;;;;;;;;14.50;14.00;;;;;;;;5059428;28;45375;-63
2022/05/23 08:55:09;;;;;;;;;11.25;10.00;;;;;;;;5058938;28;45537;-64
2022/05/23 08:57:40;;;;;;;;;13.25;12.25;;;;;;;;5059238;27;46122;-64
2022/05/23 09:00:08;;;;;;;;;10.25;8.00;;;;;;;;5055677;28;45438;-64
2022/05/23 09:02:39;;;;;;;;;15.25;14.25;;;;;;;;5059687;28;45413;-64
2022/05/23 09:05:06;;;;;;;;;14.25;13.00;;;;;;;;5060900;28;45312;-64
2022/05/23 09:07:35;;;;;;;;;15.75;12.25;;;;;;;;5058853;28;47054;-65
2022/05/23 09:10:03;;;;;;;;;11.50;11.00;;;;;;;;5040715;28;45597;-64
2022/05/23 09:12:28;;;;;;;;;13.50;12.25;;;;;;;;5058758;28;45465;-66
2022/05/23 09:14:53;;;;;;;;;15.25;12.75;;;;;;;;5054876;28;45190;-65
2022/05/23 09:17:25;;;;;;;;;15.50;14.00;;;;;;;;5061229;28;45387;-64
2022/05/23 09:20:00;;;;;;;;;8.00;8.00;;;;;;;;5058925;28;45410;-64
2022/05/23 09:22:33;;;;;;;;;14.50;13.75;;;;;;;;5059141;28;45530;-65
2022/05/23 09:24:59;;;;;;;;;15.25;12.25;;;;;;;;5058699;28;45402;-64
2022/05/23 09:27:36;;;;;;;;;19.50;14.50;;;;;;;;5058140;28;47314;-65
2022/05/23 09:30:02;;;;;;;;;15.50;12.75;;;;;;;;5038675;28;45579;-65
2022/05/23 09:32:32;;;;;;;;;15.25;13.25;;;;;;;;5060197;27;45531;-64
2022/05/23 09:34:59;;;;;;;;;15.50;13.00;;;;;;;;5058049;28;45423;-64
2022/05/23 09:37:30;;;;;;;;;16.00;16.00;;;;;;;;5057364;28;46495;-65
2022/05/23 09:39:56;;;;;;;;;15.50;14.75;;;;;;;;5058498;28;45380;-65
2022/05/23 09:48:06;;;;;;;;;22.00;18.50;;;;;;;;5039086;28;45573;-65
2022/05/23 09:50:34;;;;;;;;;17.50;15.50;;;;;;;;5058663;28;45437;-63
2022/05/23 09:53:01;;;;;;;;;23.25;20.75;;;;;;;;5058520;28;45288;-65
2022/05/23 09:55:34;;;;;;;;;17.75;17.50;;;;;;;;5058346;28;45507;-65
2022/05/23 09:58:01;;;;;;;;;19.25;18.25;;;;;;;;5057727;27;47343;-67
2022/05/23 10:00:28;;;;;;;;;19.25;17.50;;;;;;;;5056079;28;45428;-66
2022/05/23 10:03:01;;;;;;;;;21.50;18.75;;;;;;;;5054289;28;45424;-65
2022/05/23 10:05:30;;;;;;;;;21.00;21.00;;;;;;;;5068268;27;45391;-65
2022/05/23 10:07:59;;;;;;;;;24.25;21.25;;;;;;;;5058124;28;46387;-65
2022/05/23 10:10:24;;;;;;;;;24.00;21.50;;;;;;;;5058164;28;45496;-65
2022/05/23 10:12:50;;;;;;;;;20.25;18.50;;;;;;;;5057976;28;45346;-64
2022/05/23 10:15:15;;;;;;;;;19.00;19.00;;;;;;;;5056124;28;45424;-65
2022/05/23 10:17:41;;;;;;;;;24.00;21.50;;;;;;;;5056419;27;45944;-64
2022/05/23 10:20:18;;;;;;;;;25.00;23.25;;;;;;;;5059921;28;45309;-65
2022/05/23 10:22:57;;;;;;;;;22.75;18.50;;;;;;;;5057849;28;45583;-65
2022/05/23 10:25:23;;;;;;;;;22.75;22.75;;;;;;;;5057780;28;45299;-64
2022/05/23 10:27:52;;;;;;;;;20.50;20.50;;;;;;;;5056400;28;46034;-65
2022/05/23 10:30:19;;;;;;;;;28.00;22.75;;;;;;;;5055999;28;45828;-63
2022/05/23 10:32:48;;;;;;;;;21.25;19.75;;;;;;;;5055380;28;45450;-65
2022/05/23 10:35:31;;;;;;;;;21.25;17.50;;;;;;;;5059568;27;45439;-64
2022/05/23 10:43:26;;;;;;;;;25.25;24.50;;;;;;;;5057647;27;45332;-65
2022/05/23 10:45:55;;;;;;;;;22.75;21.75;;;;;;;;5057472;28;45458;-63
2022/05/23 10:48:38;;;;;;;;;26.50;23.75;;;;;;;;5055672;28;46889;-64
2022/05/23 10:51:24;;;;;;;;;17.00;17.00;;;;;;;;5038490;28;45445;-64
2022/05/23 10:54:08;;;;;;;;;21.50;20.50;;;;;;;;5054358;28;45483;-66
2022/05/23 10:56:40;;;;;;;;;25.25;23.00;;;;;;;;5070922;28;45416;-63
2022/05/23 10:59:11;;;;;;;;;24.25;23.75;;;;;;;;5059063;28;47040;-65
2022/05/23 11:01:45;;;;;;;;;25.75;22.75;;;;;;;;5057334;28;45502;-64
2022/05/23 11:04:16;;;;;;;;;22.25;21.50;;;;;;;;5057312;28;45390;-64
2022/05/23 11:06:48;;;;;;;;;28.75;25.75;;;;;;;;5057156;28;45529;-64
2022/05/23 11:09:16;;;;;;;;;27.25;26.25;;;;;;;;5054315;28;47113;-65
2022/05/23 11:12:08;;;;;;;;;22.00;21.25;;;;;;;;5054683;28;45448;-65
2022/05/23 11:14:52;;;;;;;;;20.75;16.50;;;;;;;;5067156;28;45387;-65
2022/05/23 11:17:28;;;;;;;;;26.75;24.50;;;;;;;;5058721;28;45564;-64
2022/05/23 11:19:53;;;;;;;;;24.75;23.25;;;;;;;;5056884;28;46414;-65
2022/05/23 11:22:20;;;;;;;;;28.25;25.25;;;;;;;;5056826;28;45416;-64
2022/05/23 11:24:51;;;;;;;;;27.00;25.75;;;;;;;;5057333;27;45328;-64
2022/05/23 11:35:31;;;;;;;;;26.75;22.75;;;;;;;;5066376;27;45334;-64
2022/05/23 11:38:00;;;;;;;;;26.75;26.75;;;;;;;;5057573;28;45534;-64
2022/05/23 11:40:25;;;;;;;;;23.25;22.25;;;;;;;;5056444;28;47405;-65
2022/05/23 11:43:07;;;;;;;;;25.50;22.25;;;;;;;;5057063;28;45556;-64
2022/05/23 11:51:12;;;;;;;;;25.25;21.75;;;;;;;;5036931;28;45903;-63
2022/05/23 11:53:40;;;;;;;;;26.50;21.25;;;;;;;;5055962;28;45337;-66
2022/05/23 11:56:10;;;;;;;;;35.75;31.25;;;;;;;;5058055;28;45390;-65
2022/05/23 11:58:36;;;;;;;;;20.50;20.50;;;;;;;;5056797;28;45423;-64
2022/05/23 12:01:14;;;;;;;;;22.25;22.00;;;;;;;;5056567;28;46915;-65
2022/05/23 12:03:52;;;;;;;;;26.00;26.00;;;;;;;;5056490;28;45742;-64
2022/05/23 12:06:23;;;;;;;;;23.25;23.25;;;;;;;;5054771;28;45308;-64
2022/05/23 12:08:57;;;;;;;;;25.75;24.00;;;;;;;;5053253;28;45427;-64
2022/05/23 12:11:25;;;;;;;;;23.75;22.75;;;;;;;;5058492;28;46297;-64
2022/05/23 12:13:51;;;;;;;;;26.25;22.75;;;;;;;;5056488;28;45471;-65
2022/05/23 12:16:16;;;;;;;;;28.50;26.50;;;;;;;;5056522;28;45476;-64
2022/05/23 12:18:47;;;;;;;;;28.00;26.75;;;;;;;;5056210;28;45374;-64
2022/05/23 12:21:31;;;;;;;;;26.00;26.00;;;;;;;;5053603;28;45361;-65
2022/05/23 12:24:10;;;;;;;;;27.25;24.00;;;;;;;;5054286;28;46217;-64
2022/05/23 12:26:35;;;;;;;;;21.00;21.00;;;;;;;;5070415;27;45335;-64
2022/05/23 12:29:19;;;;;;;;;21.25;20.00;;;;;;;;5060780;28;45437;-64
2022/05/23 12:32:03;;;;;;;;;20.50;20.00;;;;;;;;5058677;27;45407;-65
2022/05/23 12:34:28;;;;;;;;;29.25;24.00;;;;;;;;5059813;28;45460;-64
2022/05/23 12:36:53;;;;;;;;;22.00;20.75;;;;;;;;5060166;28;45342;-64
2022/05/23 12:39:28;;;;;;;;;28.25;25.25;;;;;;;;5056210;28;45360;-64
2022/05/23 12:42:01;;;;;;;;;25.50;24.25;;;;;;;;5055865;28;47122;-64
2022/05/23 12:44:45;;;;;;;;;24.75;19.25;;;;;;;;5069520;27;45376;-65
2022/05/23 12:47:20;;;;;;;;;24.00;22.75;;;;;;;;5059839;27;45328;-65
2022/05/23 12:49:54;;;;;;;;;20.25;18.50;;;;;;;;5059664;28;45241;-65
2022/05/23 12:52:25;;;;;;;;;22.75;20.75;;;;;;;;5059388;28;46131;-65
2022/05/23 12:55:03;;;;;;;;;16.50;15.50;;;;;;;;5059595;28;45364;-65
2022/05/23 12:57:31;;;;;;;;;17.50;15.00;;;;;;;;5059334;27;45487;-64
2022/05/23 13:00:13;;;;;;;;;14.75;14.75;;;;;;;;5055274;28;45484;-64
2022/05/23 13:02:45;;;;;;;;;12.75;11.75;;;;;;;;5069325;28;46883;-65
2022/05/23 13:05:13;;;;;;;;;18.75;16.75;;;;;;;;5059440;28;45494;-65
2022/05/23 13:07:38;;;;;;;;;14.00;13.50;;;;;;;;5059235;28;45427;-64
2022/05/23 13:10:09;;;;;;;;;16.00;15.50;;;;;;;;5059369;27;45359;-64
2022/05/23 13:12:41;;;;;;;;;17.00;14.75;;;;;;;;5059037;28;46606;-65
2022/05/23 13:15:07;;;;;;;;;17.50;15.00;;;;;;;;5055448;28;45412;-65
2022/05/23 13:17:35;;;;;;;;;16.50;14.50;;;;;;;;5059546;28;45391;-65
2022/05/23 13:22:44;;;;;;;;;19.75;19.75;;;;;;;;5058670;28;45517;-65
2022/05/23 13:25:10;;;;;;;;;17.50;17.25;;;;;;;;5058615;28;45468;-64
2022/05/23 13:27:43;;;;;;;;;19.50;18.00;;;;;;;;5055024;28;45353;-65
2022/05/23 13:30:21;;;;;;;;;16.50;16.00;;;;;;;;5070996;27;45454;-65
2022/05/23 13:32:59;;;;;;;;;13.75;13.75;;;;;;;;5056566;28;46332;-65
2022/05/23 13:35:25;;;;;;;;;11.00;11.00;;;;;;;;5061057;28;45347;-64
2022/05/23 13:37:51;;;;;;;;;16.75;16.50;;;;;;;;5059030;28;45505;-64
2022/05/23 13:40:19;;;;;;;;;14.75;13.25;;;;;;;;5058713;28;45479;-65
2022/05/23 13:42:45;;;;;;;;;13.00;13.00;;;;;;;;5058603;28;46476;-65
2022/05/23 13:45:14;;;;;;;;;14.50;14.50;;;;;;;;5055149;28;45432;-64
2022/05/23 13:47:43;;;;;;;;;12.75;11.00;;;;;;;;5057427;28;45597;-65
2022/05/23 13:50:12;;;;;;;;;14.75;14.75;;;;;;;;5059838;27;45426;-65
2022/05/23 13:52:40;;;;;;;;;12.00;11.50;;;;;;;;5058322;28;45466;-65
2022/05/23 13:55:10;;;;;;;;;10.50;9.50;;;;;;;;5058387;28;45356;-65
2022/05/23 13:57:43;;;;;;;;;7.00;6.50;;;;;;;;5058420;28;45424;-65
2022/05/23 14:00:14;;;;;;;;;9.25;9.25;;;;;;;;5054749;28;45748;-65
2022/05/23 14:02:42;;;;;;;;;8.50;8.50;;;;;;;;5038718;28;48313;-65
2022/05/23 14:05:08;;;;;;;;;8.25;8.25;;;;;;;;5060100;28;45238;-65
2022/05/23 14:07:37;;;;;;;;;10.75;10.25;;;;;;;;5058267;28;45377;-64
2022/05/23 14:10:03;;;;;;;;;11.25;9.00;;;;;;;;5058348;27;45435;-64
2022/05/23 14:12:34;;;;;;;;;8.00;8.00;;;;;;;;5055298;28;46190;-64
2022/05/23 14:15:02;;;;;;;;;8.00;8.00;;;;;;;;5037434;28;45589;-64
2022/05/23 14:17:30;;;;;;;;;5.75;5.75;;;;;;;;5067861;27;45444;-65
2022/05/23 14:20:09;;;;;;;;;6.50;5.50;;;;;;;;5057000;28;45659;-65
2022/05/23 14:22:35;;;;;;;;;6.75;6.75;;;;;;;;5057674;28;46029;-65
2022/05/23 14:25:12;;;;;;;;;7.00;6.50;;;;;;;;5057738;28;45473;-65
2022/05/23 14:27:48;;;;;;;;;6.50;6.50;;;;;;;;5057624;28;45430;-65
2022/05/23 14:30:25;;;;;;;;;7.25;7.25;;;;;;;;5055220;28;45432;-65
2022/05/23 14:32:59;;;;;;;;;12.25;9.00;;;;;;;;5054536;28;47180;-64
2022/05/23 14:35:29;;;;;;;;;7.00;7.00;;;;;;;;5059741;28;45403;-63
2022/05/23 14:37:55;;;;;;;;;6.00;6.00;;;;;;;;5056625;28;45550;-64
2022/05/23 14:40:25;;;;;;;;;6.50;4.00;;;;;;;;5057391;28;45418;-63
2022/05/23 14:42:51;;;;;;;;;10.25;8.00;;;;;;;;5056764;28;45874;-65
2022/05/23 14:45:20;;;;;;;;;6.75;5.50;;;;;;;;5053345;28;45280;-65
2022/05/23 14:47:54;;;;;;;;;8.50;5.25;;;;;;;;5036496;28;45637;-65
2022/05/23 14:50:20;;;;;;;;;9.25;7.00;;;;;;;;5059701;28;45389;-65
2022/05/23 14:55:41;;;;;;;;;5.00;5.00;;;;;;;;5057279;28;45468;-64
2022/05/23 15:00:57;;;;;;;;;8.50;5.25;;;;;;;;5057318;28;45251;-65
2022/05/23 15:03:22;;;;;;;;;7.75;7.25;;;;;;;;5055494;28;47068;-65
2022/05/23 15:05:53;;;;;;;;;9.25;8.25;;;;;;;;5054473;28;45261;-65
2022/05/23 15:08:18;;;;;;;;;4.00;4.00;;;;;;;;5059388;27;45382;-64
2022/05/23 15:10:43;;;;;;;;;7.75;7.75;;;;;;;;5056760;28;45429;-66
2022/05/23 15:13:10;;;;;;;;;6.00;6.00;;;;;;;;5056703;28;46053;-65
2022/05/23 15:15:37;;;;;;;;;6.00;4.00;;;;;;;;5057831;28;45733;-65
2022/05/23 15:18:02;;;;;;;;;7.00;6.00;;;;;;;;5052827;28;45346;-66
2022/05/23 15:20:27;;;;;;;;;7.00;4.75;;;;;;;;5059259;28;45269;-65
2022/05/23 15:22:52;;;;;;;;;5.75;5.75;;;;;;;;5056953;28;47624;-64
2022/05/23 15:25:18;;;;;;;;;6.25;6.25;;;;;;;;5056014;28;45481;-64
2022/05/23 15:27:47;;;;;;;;;5.00;5.00;;;;;;;;5057006;27;45371;-65
2022/05/23 15:30:15;;;;;;;;;7.50;6.25;;;;;;;;5053719;28;45570;-63
2022/05/23 15:32:41;;;;;;;;;2.50;2.50;;;;;;;;5055235;28;45504;-63
2022/05/23 15:35:08;;;;;;;;;2.50;2.50;;;;;;;;5058431;28;45143;-63
2022/05/23 15:37:33;;;;;;;;;4.00;4.00;;;;;;;;5056648;28;45447;-67
2022/05/23 15:39:58;;;;;;;;;8.00;4.00;;;;;;;;5056536;28;45420;-65
2022/05/23 15:42:26;;;;;;;;;4.25;4.25;;;;;;;;5055596;28;45486;-65